createdAt,value
2019-02-21T00:02:07.766Z,13.10
2019-02-21T00:04:36.417Z,13.27
2019-02-21T00:07:04.870Z,12.43
2019-02-21T00:09:33.289Z,12.88
2019-02-21T00:12:01.725Z,12.03
2019-02-21T00:14:30.141Z,13.10
2019-02-21T00:16:58.582Z,12.30
2019-02-21T00:19:27.222Z,12.93
2019-02-21T00:21:55.722Z,11.60
2019-02-21T00:24:24.162Z,11.50
2019-02-21T00:26:52.871Z,12.33
2019-02-21T00:29:21.542Z,13.17
2019-02-21T00:31:50.190Z,13.23
2019-02-21T00:34:18.652Z,12.53
2019-02-21T00:36:47.154Z,13.27
2019-02-21T00:39:15.573Z,12.77
2019-02-21T00:41:44.000Z,12.13
2019-02-21T00:44:12.549Z,12.33
2019-02-21T00:46:40.982Z,13.23
2019-02-21T00:49:09.650Z,11.45
2019-02-21T00:51:38.126Z,11.90
2019-02-21T00:54:06.541Z,12.73
2019-02-21T00:56:35.203Z,12.30
2019-02-21T00:59:03.652Z,11.70
2019-02-21T01:01:32.290Z,12.23
2019-02-21T01:04:01.074Z,13.00
2019-02-21T01:06:29.510Z,13.35
2019-02-21T01:08:57.925Z,14.40
2019-02-21T01:11:26.438Z,14.00
2019-02-21T01:13:55.123Z,13.13
2019-02-21T01:16:23.558Z,12.13
2019-02-21T01:18:52.080Z,12.27
2019-02-21T01:21:20.526Z,13.60
2019-02-21T01:23:49.192Z,11.40
2019-02-21T01:26:17.918Z,13.93
2019-02-21T01:28:46.381Z,13.97
2019-02-21T01:31:14.864Z,13.27
2019-02-21T01:33:43.538Z,12.47
2019-02-21T01:36:12.014Z,12.40
2019-02-21T01:38:40.442Z,12.37
2019-02-21T01:41:08.853Z,12.60
2019-02-21T01:43:37.305Z,13.50
2019-02-21T01:46:06.092Z,12.10
2019-02-21T01:48:34.810Z,12.43
2019-02-21T01:51:03.298Z,12.10
2019-02-21T01:53:31.945Z,12.57
2019-02-21T01:56:00.701Z,12.28
2019-02-21T01:58:29.173Z,11.10
2019-02-21T02:01:07.655Z,11.87
2019-02-21T02:03:28.523Z,11.80
2019-02-21T02:05:56.934Z,13.43
2019-02-21T02:08:25.613Z,12.40
2019-02-21T02:10:54.105Z,11.50
2019-02-21T02:13:24.848Z,12.60
2019-02-21T02:15:53.189Z,10.67
2019-02-21T02:18:21.608Z,11.73
2019-02-21T02:20:50.030Z,11.10
2019-02-21T02:23:18.463Z,12.77
2019-02-21T02:25:46.925Z,11.20
2019-02-21T02:28:15.383Z,12.17
2019-02-21T02:30:43.804Z,10.97
2019-02-21T02:33:12.486Z,12.00
2019-02-21T02:35:41.214Z,12.35
2019-02-21T02:38:09.694Z,10.78
2019-02-21T02:40:38.101Z,10.63
2019-02-21T02:43:06.770Z,11.70
2019-02-21T02:45:35.248Z,11.45
2019-02-21T02:48:03.701Z,12.60
2019-02-21T02:50:32.377Z,14.83
2019-02-21T02:53:00.884Z,12.30
2019-02-21T02:55:29.518Z,13.33
2019-02-21T02:57:57.990Z,12.60
2019-02-21T03:00:26.440Z,12.28
2019-02-21T03:02:54.879Z,11.80
2019-02-21T03:05:23.550Z,12.93
2019-02-21T03:07:51.986Z,11.90
2019-02-21T03:10:20.701Z,11.48
2019-02-21T03:12:49.370Z,12.55
2019-02-21T03:15:18.070Z,12.93
2019-02-21T03:17:46.549Z,12.03
2019-02-21T03:20:15.199Z,12.03
2019-02-21T03:22:43.965Z,11.63
2019-02-21T03:25:12.413Z,10.93
2019-02-21T03:27:40.902Z,12.23
2019-02-21T03:30:12.548Z,11.93
2019-02-21T03:32:40.858Z,11.63
2019-02-21T03:35:09.351Z,12.43
2019-02-21T03:37:37.820Z,11.85
2019-02-21T03:40:08.756Z,10.90
2019-02-21T03:42:37.499Z,11.48
2019-02-21T03:45:09.305Z,10.85
2019-02-21T03:47:37.725Z,11.43
2019-02-21T03:50:09.068Z,11.85
2019-02-21T03:52:37.497Z,11.38
2019-02-21T03:55:07.282Z,11.65
2019-02-21T03:57:35.989Z,13.93
2019-02-21T04:00:07.069Z,11.25
2019-02-21T04:02:35.486Z,11.17
2019-02-21T04:05:04.665Z,11.43
2019-02-21T04:07:33.086Z,11.40
2019-02-21T04:10:01.736Z,10.60
2019-02-21T04:12:30.202Z,11.78
2019-02-21T04:14:58.637Z,11.30
2019-02-21T04:17:27.082Z,12.47
2019-02-21T04:19:55.518Z,12.65
2019-02-21T04:22:24.263Z,11.80
2019-02-21T04:24:52.708Z,10.90
2019-02-21T04:27:21.125Z,12.43
2019-02-21T04:29:49.643Z,11.33
2019-02-21T04:32:18.293Z,12.13
2019-02-21T04:34:46.770Z,13.03
2019-02-21T04:37:15.206Z,13.50
2019-02-21T04:39:43.638Z,14.43
2019-02-21T04:42:12.495Z,13.15
2019-02-21T04:44:40.984Z,11.95
2019-02-21T04:47:09.656Z,12.55
2019-02-21T04:49:38.098Z,11.60
2019-02-21T04:52:06.541Z,13.08
2019-02-21T04:54:35.195Z,12.70
2019-02-21T04:57:03.682Z,11.78
2019-02-21T04:59:32.109Z,13.30
2019-02-21T05:02:00.530Z,12.50
2019-02-21T05:04:28.971Z,13.05
2019-02-21T05:06:57.400Z,13.00
2019-02-21T05:09:27.287Z,13.38
2019-02-21T05:11:55.957Z,12.58
2019-02-21T05:14:24.394Z,12.05
2019-02-21T05:16:52.826Z,13.62
2019-02-21T05:19:21.257Z,12.75
2019-02-21T05:21:49.677Z,14.95
2019-02-21T05:24:18.118Z,13.80
2019-02-21T05:26:51.469Z,14.25
2019-02-21T05:29:20.085Z,14.43
2019-02-21T05:31:50.143Z,13.90
2019-02-21T05:34:29.159Z,13.00
2019-02-21T05:37:02.165Z,13.08
2019-02-21T05:39:41.450Z,13.88
2019-02-21T05:42:17.416Z,13.53
2019-02-21T05:45:03.875Z,12.40
2019-02-21T05:47:49.231Z,12.68
2019-02-21T05:50:35.566Z,12.98
2019-02-21T05:53:08.698Z,11.90
2019-02-21T05:55:38.772Z,12.00
2019-02-21T05:58:12.703Z,13.20
2019-02-21T06:00:43.251Z,12.23
2019-02-21T06:03:13.309Z,13.40
2019-02-21T06:05:43.630Z,12.30
2019-02-21T06:08:23.275Z,12.45
2019-02-21T06:10:56.017Z,10.98
2019-02-21T06:13:28.656Z,11.33
2019-02-21T06:16:01.401Z,14.30
2019-02-21T06:18:49.780Z,12.25
2019-02-21T06:21:19.850Z,12.60
2019-02-21T06:23:50.154Z,12.23
2019-02-21T06:26:20.241Z,12.75
2019-02-21T06:28:50.302Z,14.45
2019-02-21T06:31:18.977Z,13.58
2019-02-21T06:33:49.453Z,14.38
2019-02-21T06:36:17.572Z,12.93
2019-02-21T06:38:45.994Z,14.30
2019-02-21T06:41:14.425Z,14.75
2019-02-21T06:43:43.091Z,14.03
2019-02-21T06:46:13.639Z,14.43
2019-02-21T06:48:41.666Z,15.68
2019-02-21T06:51:10.107Z,13.65
2019-02-21T06:53:38.512Z,14.43
2019-02-21T06:56:07.194Z,14.87
2019-02-21T06:58:35.617Z,16.32
2019-02-21T07:01:04.065Z,13.58
2019-02-21T07:03:32.546Z,12.85
2019-02-21T07:06:01.195Z,13.10
2019-02-21T07:08:29.875Z,12.10
2019-02-21T07:11:05.794Z,10.72
2019-02-21T07:13:28.510Z,11.63
2019-02-21T07:15:58.576Z,11.80
2019-02-21T07:18:28.931Z,10.53
2019-02-21T07:20:57.489Z,10.67
2019-02-21T07:23:26.795Z,9.48
2019-02-21T07:25:56.509Z,11.10
2019-02-21T07:28:27.627Z,11.70
2019-02-21T07:30:55.089Z,11.05
2019-02-21T07:33:28.435Z,10.77
2019-02-21T07:35:53.653Z,9.90
2019-02-21T07:38:22.322Z,11.37
2019-02-21T07:40:50.755Z,9.70
2019-02-21T07:43:20.547Z,9.70
2019-02-21T07:45:49.581Z,9.07
2019-02-21T07:48:18.005Z,8.90
2019-02-21T07:50:46.415Z,8.50
2019-02-21T07:53:14.850Z,10.40
2019-02-21T07:55:43.271Z,8.73
2019-02-21T07:58:11.686Z,8.50
2019-02-21T08:00:40.088Z,8.03
2019-02-21T08:03:09.281Z,8.17
2019-02-21T08:05:37.888Z,7.30
2019-02-21T08:08:09.135Z,7.90
2019-02-21T08:10:36.765Z,7.90
2019-02-21T08:13:05.196Z,7.47
2019-02-21T08:15:33.609Z,8.03
2019-02-21T08:18:02.029Z,7.03
2019-02-21T08:20:34.028Z,7.73
2019-02-21T08:23:02.925Z,6.70
2019-02-21T08:25:30.718Z,8.00
2019-02-21T08:27:59.386Z,9.33
2019-02-21T08:30:29.249Z,8.17
2019-02-21T08:33:12.149Z,8.80
2019-02-21T08:35:40.591Z,9.13
2019-02-21T08:38:11.951Z,8.93
2019-02-21T08:40:39.632Z,10.33
2019-02-21T08:43:10.059Z,10.23
2019-02-21T08:45:38.463Z,10.10
2019-02-21T08:48:06.882Z,10.80
2019-02-21T08:50:35.313Z,11.13
2019-02-21T08:53:03.796Z,12.07
2019-02-21T08:55:32.278Z,11.87
2019-02-21T08:58:00.728Z,13.20
2019-02-21T09:00:31.424Z,11.03
2019-02-21T09:02:59.369Z,11.23
2019-02-21T09:05:27.878Z,11.87
2019-02-21T09:07:58.430Z,12.67
2019-02-21T09:10:27.747Z,14.03
2019-02-21T09:12:56.390Z,14.20
2019-02-21T09:15:24.805Z,14.40
2019-02-21T09:17:54.340Z,14.20
2019-02-21T09:20:23.079Z,15.63
2019-02-21T09:22:51.492Z,14.30
2019-02-21T09:25:19.923Z,14.80
2019-02-21T09:27:48.329Z,13.37
2019-02-21T09:30:19.605Z,13.03
2019-02-21T09:32:48.017Z,12.70
2019-02-21T09:35:16.446Z,11.83
2019-02-21T09:37:45.117Z,11.93
2019-02-21T09:40:14.769Z,12.30
2019-02-21T09:42:43.431Z,11.17
2019-02-21T09:45:17.444Z,10.97
2019-02-21T09:47:46.076Z,11.60
2019-02-21T09:50:14.665Z,11.17
2019-02-21T09:52:43.155Z,13.20
2019-02-21T09:55:18.500Z,11.70
2019-02-21T09:57:46.914Z,11.23
2019-02-21T10:00:22.447Z,11.80
2019-02-21T10:02:54.314Z,10.47
2019-02-21T10:05:21.064Z,8.80
2019-02-21T10:07:49.477Z,10.50
2019-02-21T10:10:18.833Z,9.40
2019-02-21T10:12:47.244Z,8.53
2019-02-21T10:15:16.606Z,9.60
2019-02-21T10:17:45.039Z,8.60
2019-02-21T10:20:15.765Z,9.13
2019-02-21T10:22:44.189Z,11.13
2019-02-21T10:25:15.976Z,10.87
2019-02-21T10:27:44.387Z,10.37
2019-02-21T10:30:17.809Z,10.10
2019-02-21T10:32:46.457Z,11.53
2019-02-21T10:35:15.109Z,10.40
2019-02-21T10:37:43.630Z,9.70
2019-02-21T10:40:14.479Z,10.70
2019-02-21T10:42:42.960Z,9.07
2019-02-21T10:45:17.045Z,9.53
2019-02-21T10:47:45.714Z,8.50
2019-02-21T10:50:18.699Z,8.90
2019-02-21T10:52:47.807Z,8.77
2019-02-21T10:55:17.039Z,7.90
2019-02-21T10:57:46.290Z,8.10
2019-02-21T11:00:17.894Z,8.57
2019-02-21T11:02:46.561Z,7.40
2019-02-21T11:05:15.225Z,8.13
2019-02-21T11:07:43.875Z,9.97
2019-02-21T11:10:14.861Z,8.80
2019-02-21T11:12:43.289Z,9.00
2019-02-21T11:15:13.833Z,9.07
2019-02-21T11:17:42.254Z,9.33
2019-02-21T11:20:13.774Z,9.20
2019-02-21T11:22:42.199Z,9.00
2019-02-21T11:25:11.844Z,9.17
2019-02-21T11:27:40.263Z,9.37
2019-02-21T11:30:17.306Z,9.97
2019-02-21T11:32:45.797Z,9.93
2019-02-21T11:35:14.605Z,9.90
2019-02-21T11:37:46.608Z,10.10
2019-02-21T11:40:17.273Z,9.87
2019-02-21T11:42:46.075Z,9.97
2019-02-21T11:45:15.958Z,9.93
2019-02-21T11:47:44.460Z,11.53
2019-02-21T11:50:17.614Z,11.90
2019-02-21T11:52:46.045Z,10.37
2019-02-21T11:55:28.061Z,13.13
2019-02-21T11:57:56.487Z,10.80
2019-02-21T12:00:31.636Z,11.83
2019-02-21T12:03:00.126Z,12.70
2019-02-21T12:05:31.451Z,11.53
2019-02-21T12:07:59.116Z,10.77
2019-02-21T12:10:27.581Z,13.70
2019-02-21T12:12:56.003Z,13.30
2019-02-21T12:15:24.417Z,12.10
2019-02-21T12:17:52.845Z,14.00
2019-02-21T12:20:21.334Z,13.40
2019-02-21T12:22:49.761Z,13.53
2019-02-21T12:25:20.186Z,13.47
2019-02-21T12:27:48.845Z,15.00
2019-02-21T12:30:19.219Z,14.37
2019-02-21T12:32:47.993Z,14.53
2019-02-21T12:35:16.592Z,13.67
2019-02-21T12:37:45.080Z,14.50
2019-02-21T12:40:21.810Z,14.77
2019-02-21T12:42:50.478Z,13.97
2019-02-21T12:45:26.657Z,13.90
2019-02-21T12:47:55.289Z,14.57
2019-02-21T12:50:23.747Z,14.80
2019-02-21T12:52:52.282Z,13.87
2019-02-21T12:55:28.134Z,13.80
2019-02-21T12:57:51.694Z,13.40
2019-02-21T13:00:21.141Z,13.03
2019-02-21T13:02:49.569Z,13.50
2019-02-21T13:05:18.057Z,14.37
2019-02-21T13:07:46.481Z,13.70
2019-02-21T13:10:20.049Z,12.97
2019-02-21T13:12:48.659Z,12.60
2019-02-21T13:15:17.180Z,12.57
2019-02-21T13:17:45.667Z,14.57
2019-02-21T13:20:15.693Z,14.10
2019-02-21T13:22:44.118Z,14.30
2019-02-21T13:25:14.874Z,13.80
2019-02-21T13:27:43.337Z,13.33
2019-02-21T13:30:16.097Z,11.53
2019-02-21T13:32:44.613Z,12.00
2019-02-21T13:35:13.451Z,11.37
2019-02-21T13:37:41.966Z,10.70
2019-02-21T13:40:12.559Z,11.03
2019-02-21T13:42:41.033Z,9.57
2019-02-21T13:45:11.177Z,11.57
2019-02-21T13:47:39.838Z,10.50
2019-02-21T13:50:11.014Z,9.87
2019-02-21T13:52:39.688Z,9.20
2019-02-21T13:55:08.229Z,11.23
2019-02-21T13:57:36.705Z,10.13
2019-02-21T14:00:16.411Z,10.47
2019-02-21T14:02:44.978Z,10.67
2019-02-21T14:05:13.487Z,10.40
2019-02-21T14:07:41.904Z,9.77
2019-02-21T14:10:12.271Z,8.00
2019-02-21T14:12:40.925Z,8.50
2019-02-21T14:15:15.681Z,6.20
2019-02-21T14:17:46.513Z,6.60
2019-02-21T14:20:14.492Z,6.23
2019-02-21T14:22:42.897Z,6.80
2019-02-21T14:25:11.460Z,6.83
2019-02-21T14:27:39.877Z,6.50
2019-02-21T14:30:16.468Z,7.27
2019-02-21T14:32:44.976Z,5.40
2019-02-21T14:35:14.307Z,5.30
2019-02-21T14:37:42.714Z,4.63
2019-02-21T14:40:16.305Z,5.10
2019-02-21T14:42:44.834Z,5.80
2019-02-21T14:45:21.000Z,4.80
2019-02-21T14:47:49.458Z,5.33
2019-02-21T14:50:18.096Z,5.43
2019-02-21T14:52:46.546Z,5.90
2019-02-21T14:55:16.057Z,5.63
2019-02-21T14:57:44.551Z,5.83
2019-02-21T15:00:24.177Z,5.70
2019-02-21T15:02:52.597Z,6.37
2019-02-21T15:05:21.086Z,7.03
2019-02-21T15:07:49.509Z,6.83
2019-02-21T15:10:18.310Z,7.10
2019-02-21T15:12:46.829Z,6.70
2019-02-21T15:15:23.589Z,5.03
2019-02-21T15:17:52.306Z,4.93
2019-02-21T15:20:20.722Z,6.00
2019-02-21T15:22:49.130Z,6.20
2019-02-21T15:25:17.833Z,6.03
2019-02-21T15:27:46.758Z,5.50
2019-02-21T15:30:22.802Z,5.40
2019-02-21T15:32:51.458Z,6.93
2019-02-21T15:35:19.958Z,6.03
2019-02-21T15:37:48.363Z,5.00
2019-02-21T15:40:16.862Z,5.87
2019-02-21T15:42:45.268Z,5.40
2019-02-21T15:45:23.530Z,6.27
2019-02-21T15:47:50.174Z,7.33
2019-02-21T15:50:20.061Z,5.60
2019-02-21T15:52:48.916Z,6.30
2019-02-21T15:55:18.775Z,5.03
2019-02-21T15:57:47.185Z,6.00
2019-02-21T16:00:17.810Z,5.33
2019-02-21T16:02:46.522Z,6.07
2019-02-21T16:05:15.113Z,6.27
2019-02-21T16:07:43.749Z,5.67
2019-02-21T16:10:17.552Z,5.97
2019-02-21T16:12:46.647Z,6.27
2019-02-21T16:15:16.524Z,5.47
2019-02-21T16:17:45.216Z,5.80
2019-02-21T16:20:20.556Z,5.23
2019-02-21T16:22:49.086Z,6.10
2019-02-21T16:25:22.385Z,6.03
2019-02-21T16:27:50.888Z,4.83
2019-02-21T16:30:21.914Z,5.27
2019-02-21T16:32:49.427Z,5.30
2019-02-21T16:35:17.847Z,5.40
2019-02-21T16:37:46.315Z,5.17
2019-02-21T16:40:18.901Z,6.37
2019-02-21T16:42:47.566Z,7.37
2019-02-21T16:45:18.735Z,5.67
2019-02-21T16:47:47.381Z,6.63
2019-02-21T16:50:15.858Z,5.70
2019-02-21T16:52:44.380Z,42.27
2019-02-21T16:55:17.961Z,20.20
2019-02-21T16:57:46.502Z,12.00
2019-02-21T17:00:16.865Z,19.67
2019-02-21T17:02:45.425Z,7.97
2019-02-21T17:05:14.633Z,5.60
2019-02-21T17:07:43.103Z,6.90
2019-02-21T17:10:13.726Z,8.43
2019-02-21T17:12:42.237Z,6.67
2019-02-21T17:15:15.623Z,6.37
2019-02-21T17:17:44.483Z,5.73
2019-02-21T17:20:18.502Z,5.70
2019-02-21T17:22:46.944Z,5.63
2019-02-21T17:25:16.255Z,5.40
2019-02-21T17:27:45.723Z,6.17
2019-02-21T17:30:18.053Z,6.30
2019-02-21T17:32:46.485Z,5.07
2019-02-21T17:35:15.061Z,5.40
2019-02-21T17:37:43.558Z,5.80
2019-02-21T17:40:20.233Z,5.27
2019-02-21T17:42:48.771Z,5.67
2019-02-21T17:45:17.202Z,8.63
2019-02-21T17:47:45.638Z,9.50
2019-02-21T17:50:17.198Z,7.30
2019-02-21T17:52:45.731Z,7.33
2019-02-21T17:55:15.196Z,8.10
2019-02-21T17:57:43.824Z,8.57
2019-02-21T18:00:24.758Z,8.30
2019-02-21T18:02:53.284Z,7.50
2019-02-21T18:05:21.871Z,8.53
2019-02-21T18:07:50.319Z,7.80
2019-02-21T18:10:19.074Z,8.20
2019-02-21T18:12:47.515Z,8.50
2019-02-21T18:15:16.879Z,7.23
2019-02-21T18:17:45.326Z,7.57
2019-02-21T18:20:15.130Z,7.37
2019-02-21T18:22:43.791Z,6.80
2019-02-21T18:25:21.683Z,6.07
2019-02-21T18:27:50.120Z,6.93
2019-02-21T18:30:18.608Z,6.80
2019-02-21T18:32:47.036Z,6.47
2019-02-21T18:35:15.529Z,6.77
2019-02-21T18:37:47.485Z,6.53
2019-02-21T18:40:20.896Z,8.23
2019-02-21T18:42:49.905Z,6.47
2019-02-21T18:45:18.457Z,7.00
2019-02-21T18:47:46.871Z,6.73
2019-02-21T18:50:15.483Z,6.20
2019-02-21T18:52:43.886Z,6.30
2019-02-21T18:55:12.599Z,6.90
2019-02-21T18:57:41.307Z,5.10
2019-02-21T19:00:18.858Z,6.83
2019-02-21T19:02:47.296Z,6.53
2019-02-21T19:05:15.727Z,6.80
2019-02-21T19:07:44.161Z,6.50
2019-02-21T19:10:17.338Z,7.50
2019-02-21T19:12:45.992Z,6.80
2019-02-21T19:15:15.558Z,6.13
2019-02-21T19:17:43.977Z,6.60
2019-02-21T19:20:14.426Z,5.13
2019-02-21T19:22:42.910Z,5.00
2019-02-21T19:25:12.374Z,8.33
2019-02-21T19:27:41.025Z,7.17
2019-02-21T19:30:12.899Z,7.63
2019-02-21T19:32:41.316Z,7.40
2019-02-21T19:35:09.820Z,8.40
2019-02-21T19:37:38.619Z,9.60
2019-02-21T19:40:10.741Z,9.07
2019-02-21T19:42:39.171Z,11.23
2019-02-21T19:45:08.734Z,9.20
2019-02-21T19:47:37.158Z,10.50
2019-02-21T19:50:09.774Z,10.03
2019-02-21T19:52:38.413Z,10.23
2019-02-21T19:55:09.026Z,10.80
2019-02-21T19:57:37.510Z,9.97
2019-02-21T20:00:12.085Z,10.27
2019-02-21T20:02:40.505Z,10.33
2019-02-21T20:05:09.145Z,10.00
2019-02-21T20:07:37.677Z,9.83
2019-02-21T20:10:07.839Z,9.13
2019-02-21T20:12:36.263Z,9.50
2019-02-21T20:15:07.539Z,10.50
2019-02-21T20:17:35.966Z,11.03
2019-02-21T20:20:07.008Z,11.10
2019-02-21T20:22:35.428Z,9.83
2019-02-21T20:25:05.090Z,10.73
2019-02-21T20:27:33.515Z,9.80
2019-02-21T20:30:01.944Z,9.40
2019-02-21T20:32:30.606Z,10.43
2019-02-21T20:34:59.040Z,9.23
2019-02-21T20:37:27.677Z,10.60
2019-02-21T20:39:56.369Z,9.67
2019-02-21T20:42:24.830Z,10.27
2019-02-21T20:44:53.257Z,11.97
2019-02-21T20:47:21.674Z,14.20
2019-02-21T20:49:50.098Z,13.27
2019-02-21T20:52:18.516Z,11.87
2019-02-21T20:54:46.950Z,11.80
2019-02-21T20:57:15.371Z,13.83
2019-02-21T20:59:43.799Z,10.43
2019-02-21T21:02:12.528Z,10.20
2019-02-21T21:04:40.994Z,11.07
2019-02-21T21:07:09.419Z,10.17
2019-02-21T21:09:37.913Z,11.07
2019-02-21T21:12:06.342Z,9.87
2019-02-21T21:14:34.811Z,11.53
2019-02-21T21:17:03.325Z,9.23
2019-02-21T21:19:31.962Z,9.37
2019-02-21T21:22:00.505Z,9.57
2019-02-21T21:24:28.924Z,11.00
2019-02-21T21:26:57.362Z,10.87
2019-02-21T21:29:25.781Z,11.40
2019-02-21T21:31:54.207Z,13.37
2019-02-21T21:34:22.882Z,11.50
2019-02-21T21:36:51.313Z,11.10
2019-02-21T21:39:19.734Z,10.70
2019-02-21T21:41:48.169Z,11.67
2019-02-21T21:44:16.594Z,10.83
2019-02-21T21:46:45.027Z,9.73
2019-02-21T21:49:13.665Z,10.57
2019-02-21T21:51:42.123Z,9.83
2019-02-21T21:54:10.532Z,10.73
2019-02-21T21:56:38.964Z,12.87
2019-02-21T21:59:07.378Z,10.90
2019-02-21T22:01:35.818Z,10.50
2019-02-21T22:04:04.229Z,9.37
2019-02-21T22:06:32.653Z,9.67
2019-02-21T22:09:04.848Z,9.87
2019-02-21T22:11:31.217Z,9.73
2019-02-21T22:13:59.962Z,8.73
2019-02-21T22:16:28.397Z,10.73
2019-02-21T22:18:57.058Z,9.97
2019-02-21T22:21:25.490Z,11.80
2019-02-21T22:23:53.930Z,10.87
2019-02-21T22:26:22.408Z,10.97
2019-02-21T22:28:51.072Z,9.63
2019-02-21T22:31:19.489Z,10.30
2019-02-21T22:33:47.938Z,10.27
2019-02-21T22:36:16.413Z,10.90
2019-02-21T22:38:44.838Z,10.40
2019-02-21T22:41:13.257Z,10.67
2019-02-21T22:43:44.294Z,10.67
2019-02-21T22:46:12.089Z,11.43
2019-02-21T22:48:47.282Z,11.90
2019-02-21T22:51:11.119Z,11.07
2019-02-21T22:53:39.582Z,11.40
2019-02-21T22:56:08.013Z,11.70
2019-02-21T22:58:44.671Z,12.37
2019-02-21T23:01:19.308Z,12.13
2019-02-21T23:03:50.872Z,11.37
2019-02-21T23:06:25.055Z,10.30
2019-02-21T23:08:54.314Z,10.23
2019-02-21T23:11:23.493Z,11.50
2019-02-21T23:13:52.052Z,11.80
2019-02-21T23:16:20.553Z,10.60
2019-02-21T23:18:49.154Z,10.30
2019-02-21T23:21:17.573Z,10.97
2019-02-21T23:23:46.247Z,11.47
2019-02-21T23:26:14.657Z,10.77
2019-02-21T23:28:43.081Z,10.23
2019-02-21T23:31:11.516Z,10.20
2019-02-21T23:33:41.585Z,10.93
2019-02-21T23:36:10.007Z,11.07
2019-02-21T23:38:38.667Z,10.43
2019-02-21T23:41:07.353Z,11.63
2019-02-21T23:43:35.809Z,11.97
2019-02-21T23:46:04.226Z,10.93
2019-02-21T23:48:32.662Z,10.80
2019-02-21T23:51:01.085Z,10.73
2019-02-21T23:53:29.766Z,8.33
2019-02-21T23:55:58.185Z,11.33
2019-02-21T23:58:26.608Z,10.13
